createdAt,value
2022-08-19T00:00:39.929Z,20.35
2022-08-19T00:03:07.817Z,20.32
2022-08-19T00:05:35.076Z,20.26
2022-08-19T00:08:01.882Z,20.17
2022-08-19T00:10:28.494Z,20.08
2022-08-19T00:12:54.955Z,20.03
2022-08-19T00:15:22.577Z,20.15
2022-08-19T00:17:49.581Z,20.28
2022-08-19T00:20:19.817Z,20.15
2022-08-19T00:22:48.219Z,20.01
2022-08-19T00:25:15.214Z,19.95
2022-08-19T00:27:42.329Z,19.97
2022-08-19T00:30:11.075Z,19.90
2022-08-19T00:32:37.848Z,19.87
2022-08-19T00:35:04.680Z,20.03
2022-08-19T00:37:31.158Z,19.87
2022-08-19T00:39:57.742Z,20.08
2022-08-19T00:42:24.421Z,19.84
2022-08-19T00:44:51.584Z,19.94
2022-08-19T00:47:18.575Z,19.85
2022-08-19T00:49:56.657Z,19.80
2022-08-19T00:52:35.990Z,19.73
2022-08-19T00:55:04.129Z,19.60
2022-08-19T00:57:36.795Z,19.55
2022-08-19T01:00:09.658Z,19.49
2022-08-19T01:02:36.146Z,19.53
2022-08-19T01:05:06.055Z,19.53
2022-08-19T01:07:35.885Z,19.63
2022-08-19T01:10:06.806Z,19.63
2022-08-19T01:12:34.164Z,19.46
2022-08-19T01:15:00.738Z,19.60
2022-08-19T01:17:28.249Z,19.47
2022-08-19T01:19:54.744Z,19.47
2022-08-19T01:22:30.084Z,19.38
2022-08-19T01:24:59.403Z,19.38
2022-08-19T01:27:25.989Z,19.28
2022-08-19T01:29:52.454Z,19.19
2022-08-19T01:32:33.389Z,19.11
2022-08-19T01:35:02.561Z,19.05
2022-08-19T01:37:31.200Z,19.08
2022-08-19T01:39:57.784Z,19.12
2022-08-19T01:42:30.294Z,19.06
2022-08-19T01:44:57.376Z,19.12
2022-08-19T01:47:24.002Z,19.08
2022-08-19T01:49:50.440Z,18.99
2022-08-19T01:52:16.970Z,19.08
2022-08-19T01:54:43.405Z,19.15
2022-08-19T01:57:13.345Z,19.19
2022-08-19T01:59:42.247Z,19.32
2022-08-19T02:02:09.493Z,19.06
2022-08-19T02:04:38.868Z,18.97
2022-08-19T02:07:06.510Z,18.84
2022-08-19T02:09:33.589Z,18.75
2022-08-19T02:12:00.460Z,18.71
2022-08-19T02:14:27.109Z,18.63
2022-08-19T02:16:53.636Z,18.71
2022-08-19T02:19:20.186Z,18.78
2022-08-19T02:21:47.232Z,18.70
2022-08-19T02:24:13.681Z,18.77
2022-08-19T02:26:40.782Z,18.77
2022-08-19T02:29:07.246Z,18.73
2022-08-19T02:31:34.246Z,18.67
2022-08-19T02:34:01.683Z,18.77
2022-08-19T02:36:28.742Z,18.70
2022-08-19T02:38:56.828Z,18.88
2022-08-19T02:41:27.188Z,19.05
2022-08-19T02:44:26.497Z,19.04
2022-08-19T02:46:41.963Z,18.95
2022-08-19T02:49:09.224Z,18.80
2022-08-19T02:51:40.585Z,18.61
2022-08-19T02:54:09.012Z,18.84
2022-08-19T02:56:37.373Z,18.58
2022-08-19T02:59:09.219Z,18.56
2022-08-19T03:01:38.419Z,18.61
2022-08-19T03:04:06.425Z,18.64
2022-08-19T03:06:33.373Z,18.61
2022-08-19T03:08:59.879Z,18.78
2022-08-19T03:11:30.539Z,18.89
2022-08-19T03:13:58.212Z,18.92
2022-08-19T03:16:26.746Z,18.99
2022-08-19T03:18:54.693Z,18.84
2022-08-19T03:21:24.875Z,18.84
2022-08-19T03:23:54.925Z,18.75
2022-08-19T03:26:21.470Z,18.83
2022-08-19T03:28:57.817Z,18.64
2022-08-19T03:31:41.940Z,18.77
2022-08-19T03:34:22.627Z,18.78
2022-08-19T03:36:49.414Z,18.70
2022-08-19T03:39:16.213Z,18.75
2022-08-19T03:41:46.444Z,18.64
2022-08-19T03:44:21.723Z,18.57
2022-08-19T03:46:50.931Z,18.48
2022-08-19T03:49:19.588Z,18.67
2022-08-19T03:51:48.321Z,18.67
2022-08-19T03:54:17.593Z,18.64
2022-08-19T03:56:45.901Z,18.74
2022-08-19T03:59:15.881Z,18.51
2022-08-19T04:01:42.947Z,18.47
2022-08-19T04:04:09.958Z,18.39
2022-08-19T04:06:39.803Z,18.44
2022-08-19T04:09:09.656Z,18.67
2022-08-19T04:11:45.216Z,18.81
2022-08-19T04:14:19.374Z,18.88
2022-08-19T04:16:47.782Z,18.99
2022-08-19T04:19:16.597Z,18.92
2022-08-19T04:21:46.378Z,18.67
2022-08-19T04:24:14.131Z,18.53
2022-08-19T04:26:41.172Z,18.61
2022-08-19T04:29:12.747Z,18.71
2022-08-19T04:31:41.288Z,18.64
2022-08-19T04:34:11.662Z,18.64
2022-08-19T04:36:41.443Z,18.53
2022-08-19T04:39:11.743Z,18.37
2022-08-19T04:41:56.937Z,18.27
2022-08-19T04:44:23.846Z,18.43
2022-08-19T04:46:52.070Z,18.40
2022-08-19T04:49:23.094Z,18.32
2022-08-19T04:51:51.175Z,18.20
2022-08-19T04:54:37.506Z,18.16
2022-08-19T04:57:09.372Z,18.19
2022-08-19T04:59:36.594Z,18.19
2022-08-19T05:02:04.806Z,18.30
2022-08-19T05:04:32.963Z,18.44
2022-08-19T05:07:01.965Z,18.36
2022-08-19T05:09:33.109Z,18.46
2022-08-19T05:12:16.528Z,18.61
2022-08-19T05:14:43.215Z,18.60
2022-08-19T05:17:26.573Z,18.63
2022-08-19T05:20:12.827Z,18.64
2022-08-19T05:22:39.568Z,18.75
2022-08-19T05:25:13.154Z,18.91
2022-08-19T05:27:41.120Z,18.95
2022-08-19T05:30:08.333Z,19.04
2022-08-19T05:32:35.998Z,19.09
2022-08-19T05:35:02.581Z,19.26
2022-08-19T05:37:29.044Z,19.52
2022-08-19T05:39:56.217Z,19.56
2022-08-19T05:42:24.152Z,19.46
2022-08-19T05:44:52.137Z,19.31
2022-08-19T05:47:20.778Z,19.22
2022-08-19T05:49:48.396Z,19.11
2022-08-19T05:52:19.531Z,18.91
2022-08-19T05:54:55.514Z,18.91
2022-08-19T05:57:22.008Z,18.98
2022-08-19T05:59:49.352Z,18.95
2022-08-19T06:02:20.011Z,18.98
2022-08-19T06:04:46.692Z,19.01
2022-08-19T06:07:13.251Z,18.92
2022-08-19T06:09:40.881Z,19.11
2022-08-19T06:12:08.213Z,19.28
2022-08-19T06:14:40.222Z,19.20
2022-08-19T06:17:09.077Z,19.20
2022-08-19T06:19:40.580Z,19.22
2022-08-19T06:22:08.189Z,19.28
2022-08-19T06:24:36.037Z,19.43
2022-08-19T06:27:03.818Z,19.59
2022-08-19T06:32:37.886Z,19.50
2022-08-19T06:35:08.021Z,19.39
2022-08-19T06:37:34.577Z,19.57
2022-08-19T06:40:01.110Z,19.73
2022-08-19T06:42:27.577Z,19.70
2022-08-19T06:44:54.075Z,19.47
2022-08-19T06:47:24.022Z,19.53
2022-08-19T06:50:03.875Z,19.64
2022-08-19T06:52:34.851Z,19.83
2022-08-19T06:55:06.369Z,20.10
2022-08-19T06:57:34.290Z,20.07
2022-08-19T07:00:01.143Z,19.81
2022-08-19T07:02:27.766Z,19.95
2022-08-19T07:04:54.496Z,20.04
2022-08-19T07:07:22.284Z,20.35
2022-08-19T07:09:58.420Z,20.24
2022-08-19T07:12:28.317Z,20.22
2022-08-19T07:14:56.656Z,20.28
2022-08-19T07:17:24.209Z,20.46
2022-08-19T07:19:51.425Z,20.36
2022-08-19T07:22:21.593Z,20.48
2022-08-19T07:24:51.254Z,20.38
2022-08-19T07:27:19.482Z,20.22
2022-08-19T07:29:55.929Z,20.66
2022-08-19T07:32:23.312Z,20.89
2022-08-19T07:34:49.834Z,20.94
2022-08-19T07:37:17.093Z,20.83
2022-08-19T07:39:46.278Z,20.52
2022-08-19T07:42:13.242Z,20.66
2022-08-19T07:47:48.234Z,20.42
2022-08-19T07:50:00.389Z,20.44
2022-08-19T07:52:26.811Z,20.61
2022-08-19T07:54:53.364Z,20.87
2022-08-19T07:57:20.071Z,20.63
2022-08-19T07:59:46.637Z,20.79
2022-08-19T08:02:13.069Z,20.63
2022-08-19T08:04:57.938Z,20.58
2022-08-19T08:07:46.292Z,20.92
2022-08-19T08:10:20.499Z,22.09
2022-08-19T08:12:49.775Z,22.20
2022-08-19T08:15:36.535Z,21.98
2022-08-19T08:18:06.946Z,22.27
2022-08-19T08:20:34.629Z,22.18
2022-08-19T08:23:20.924Z,21.24
2022-08-19T08:25:49.357Z,21.38
2022-08-19T08:28:17.437Z,21.13
2022-08-19T08:30:46.585Z,21.19
2022-08-19T08:33:13.213Z,21.68
2022-08-19T08:35:46.434Z,21.50
2022-08-19T08:38:13.441Z,22.18
2022-08-19T08:40:57.569Z,22.61
2022-08-19T08:43:46.386Z,22.90
2022-08-19T08:46:32.418Z,23.08
2022-08-19T08:49:01.814Z,21.92
2022-08-19T08:51:45.299Z,22.56
2022-08-19T08:54:18.779Z,22.33
2022-08-19T08:56:46.824Z,22.64
2022-08-19T08:59:33.281Z,22.84
2022-08-19T09:02:00.376Z,23.28
2022-08-19T09:04:27.194Z,23.25
2022-08-19T09:07:34.664Z,23.72
2022-08-19T09:10:25.831Z,24.01
2022-08-19T09:13:09.177Z,25.43
2022-08-19T09:15:44.632Z,26.91
2022-08-19T09:18:19.336Z,26.07
2022-08-19T09:20:48.352Z,25.57
2022-08-19T09:23:15.390Z,24.72
2022-08-19T09:25:42.046Z,24.30
2022-08-19T09:28:15.062Z,23.84
2022-08-19T09:30:49.323Z,23.76
2022-08-19T09:33:16.561Z,24.17
2022-08-19T09:35:49.846Z,25.12
2022-08-19T09:38:19.982Z,24.44
2022-08-19T09:40:46.383Z,24.69
2022-08-19T09:43:13.068Z,24.27
2022-08-19T09:45:40.450Z,24.40
2022-08-19T09:48:07.162Z,25.23
2022-08-19T09:50:35.073Z,24.92
2022-08-19T09:53:01.578Z,24.51
2022-08-19T09:55:31.228Z,24.62
2022-08-19T09:58:02.465Z,26.26
2022-08-19T10:00:29.294Z,25.04
2022-08-19T10:02:55.745Z,25.58
2022-08-19T10:05:42.599Z,25.51
2022-08-19T10:08:13.679Z,28.14
2022-08-19T10:10:46.326Z,26.55
2022-08-19T10:13:15.453Z,27.54
2022-08-19T10:15:47.816Z,26.79
2022-08-19T10:18:19.058Z,26.08
2022-08-19T10:20:51.330Z,27.57
2022-08-19T10:23:19.028Z,29.53
2022-08-19T10:25:45.429Z,27.45
2022-08-19T10:28:12.954Z,26.84
2022-08-19T10:30:40.564Z,27.66
2022-08-19T10:33:10.923Z,28.23
2022-08-19T10:35:42.484Z,27.68
2022-08-19T10:38:22.819Z,29.59
2022-08-19T10:40:59.611Z,31.62
2022-08-19T10:43:26.142Z,32.65
2022-08-19T10:45:56.785Z,29.66
2022-08-19T10:48:23.285Z,28.45
2022-08-19T10:51:08.556Z,28.70
2022-08-19T10:53:35.076Z,29.15
2022-08-19T10:56:21.483Z,29.88
2022-08-19T10:58:49.720Z,28.02
2022-08-19T11:01:16.380Z,26.66
2022-08-19T11:03:42.998Z,27.20
2022-08-19T11:06:09.777Z,27.94
2022-08-19T11:08:38.500Z,28.77
2022-08-19T11:11:06.935Z,27.23
2022-08-19T11:13:38.351Z,28.12
2022-08-19T11:16:09.105Z,26.57
2022-08-19T11:18:41.695Z,25.88
2022-08-19T11:21:15.440Z,27.21
2022-08-19T11:23:42.062Z,27.07
2022-08-19T11:26:08.605Z,26.45
2022-08-19T11:28:35.210Z,26.02
2022-08-19T11:31:02.334Z,27.13
2022-08-19T11:33:28.828Z,27.86
2022-08-19T11:35:55.301Z,26.28
2022-08-19T11:38:21.736Z,26.29
2022-08-19T11:40:55.870Z,27.30
2022-08-19T11:43:22.613Z,28.48
2022-08-19T11:45:49.632Z,28.23
2022-08-19T11:48:16.067Z,29.63
2022-08-19T11:50:43.190Z,30.84
2022-08-19T11:53:10.872Z,31.38
2022-08-19T11:55:44.092Z,28.99
2022-08-19T11:58:19.083Z,28.57
2022-08-19T12:00:46.149Z,28.79
2022-08-19T12:03:15.998Z,31.06
2022-08-19T12:05:42.589Z,31.00
2022-08-19T12:08:09.695Z,31.09
2022-08-19T12:10:36.716Z,28.96
2022-08-19T12:13:03.800Z,28.61
2022-08-19T12:15:37.136Z,29.62
2022-08-19T12:18:05.508Z,29.08
2022-08-19T12:20:32.040Z,27.71
2022-08-19T12:23:02.061Z,28.71
2022-08-19T12:25:28.516Z,29.15
2022-08-19T12:27:57.425Z,29.57
2022-08-19T12:30:25.154Z,29.07
2022-08-19T12:32:52.255Z,28.99
2022-08-19T12:35:21.041Z,29.78
2022-08-19T12:37:53.599Z,31.03
2022-08-19T12:40:24.246Z,31.00
2022-08-19T12:42:53.141Z,31.99
2022-08-19T12:45:20.051Z,31.81
2022-08-19T12:47:47.758Z,30.63
2022-08-19T12:50:16.012Z,30.87
2022-08-19T12:52:43.419Z,31.70
2022-08-19T12:55:11.517Z,32.77
2022-08-19T12:57:38.549Z,31.26
2022-08-19T13:00:14.582Z,30.92
2022-08-19T13:02:45.325Z,30.45
2022-08-19T13:05:14.771Z,28.88
2022-08-19T13:07:41.919Z,29.69
2022-08-19T13:10:10.610Z,28.54
2022-08-19T13:12:37.387Z,28.63
2022-08-19T13:15:11.149Z,29.37
2022-08-19T13:17:39.402Z,29.15
2022-08-19T13:20:08.836Z,29.28
2022-08-19T13:22:36.893Z,29.42
2022-08-19T13:25:06.520Z,28.30
2022-08-19T13:27:33.036Z,28.92
2022-08-19T13:30:20.717Z,30.18
2022-08-19T13:33:05.884Z,31.06
2022-08-19T13:35:33.230Z,32.24
2022-08-19T13:37:59.708Z,32.20
2022-08-19T13:40:27.834Z,30.61
2022-08-19T13:42:56.101Z,30.73
2022-08-19T13:45:26.057Z,32.04
2022-08-19T13:47:59.275Z,31.57
2022-08-19T13:50:34.131Z,30.05
2022-08-19T13:53:03.359Z,30.21
2022-08-19T13:55:30.070Z,31.10
2022-08-19T13:58:01.052Z,31.70
2022-08-19T14:00:29.786Z,30.66
2022-08-19T14:02:58.392Z,31.09
2022-08-19T14:05:26.731Z,31.94
2022-08-19T14:07:53.878Z,32.24
2022-08-19T14:10:21.722Z,32.09
2022-08-19T14:12:48.730Z,32.36
2022-08-19T14:15:16.514Z,32.49
2022-08-19T14:17:45.471Z,29.39
2022-08-19T14:20:18.425Z,29.47
2022-08-19T14:22:46.821Z,31.72
2022-08-19T14:25:17.447Z,32.99
2022-08-19T14:27:44.414Z,33.41
2022-08-19T14:30:15.189Z,33.82
2022-08-19T14:32:44.118Z,31.65
2022-08-19T14:35:13.426Z,30.90
2022-08-19T14:37:45.814Z,31.85
2022-08-19T14:40:14.893Z,31.04
2022-08-19T14:42:42.741Z,30.52
2022-08-19T14:45:10.388Z,30.14
2022-08-19T14:47:37.015Z,30.49
2022-08-19T14:50:18.306Z,29.90
2022-08-19T14:52:48.534Z,29.88
2022-08-19T14:55:17.463Z,30.49
2022-08-19T14:57:44.904Z,29.97
2022-08-19T15:00:15.026Z,31.00
2022-08-19T15:02:42.559Z,30.83
2022-08-19T15:05:09.431Z,31.97
2022-08-19T15:07:36.058Z,32.77
2022-08-19T15:10:02.905Z,31.21
2022-08-19T15:12:29.530Z,30.73
2022-08-19T15:14:56.856Z,30.62
2022-08-19T15:17:35.345Z,31.68
2022-08-19T15:20:13.383Z,31.20
2022-08-19T15:22:41.016Z,32.16
2022-08-19T15:25:11.637Z,31.24
2022-08-19T15:27:40.030Z,30.65
2022-08-19T15:30:09.217Z,31.23
2022-08-19T15:32:36.830Z,31.58
2022-08-19T15:35:04.661Z,31.17
2022-08-19T15:37:31.403Z,30.02
2022-08-19T15:39:58.357Z,29.16
2022-08-19T15:42:29.517Z,29.19
2022-08-19T15:44:56.850Z,29.65
2022-08-19T15:47:35.126Z,30.75
2022-08-19T15:50:13.378Z,31.65
2022-08-19T15:52:54.718Z,31.78
2022-08-19T15:55:33.147Z,29.74
2022-08-19T15:58:29.913Z,29.50
2022-08-19T16:01:20.268Z,29.20
2022-08-19T16:04:13.867Z,29.40
2022-08-19T16:06:43.959Z,29.39
2022-08-19T16:09:10.426Z,29.07
2022-08-19T16:11:39.968Z,28.98
2022-08-19T16:14:09.311Z,28.29
2022-08-19T16:16:37.056Z,28.10
2022-08-19T16:19:10.603Z,27.88
2022-08-19T16:21:41.984Z,27.54
2022-08-19T16:24:13.044Z,27.28
2022-08-19T16:26:40.939Z,27.35
2022-08-19T16:29:12.147Z,27.82
2022-08-19T16:31:41.477Z,28.02
2022-08-19T16:34:07.912Z,27.96
2022-08-19T16:36:34.430Z,27.97
2022-08-19T16:39:02.011Z,27.31
2022-08-19T16:41:29.186Z,27.04
2022-08-19T16:43:55.969Z,27.04
2022-08-19T16:46:26.877Z,27.03
2022-08-19T16:48:54.700Z,26.79
2022-08-19T16:51:22.791Z,26.47
2022-08-19T16:53:53.182Z,26.57
2022-08-19T16:56:20.344Z,26.59
2022-08-19T16:58:47.812Z,26.42
2022-08-19T17:01:15.309Z,26.32
2022-08-19T17:03:42.030Z,26.15
2022-08-19T17:06:20.342Z,26.11
2022-08-19T17:08:49.592Z,26.15
2022-08-19T17:11:19.124Z,26.01
2022-08-19T17:13:47.990Z,26.15
2022-08-19T17:16:19.886Z,25.94
2022-08-19T17:18:46.389Z,26.18
2022-08-19T17:21:13.177Z,26.15
2022-08-19T17:23:43.700Z,26.16
2022-08-19T17:26:17.954Z,26.21
2022-08-19T17:28:45.914Z,26.18
2022-08-19T17:31:12.396Z,26.14
2022-08-19T17:33:41.287Z,26.24
2022-08-19T17:36:08.384Z,26.01
2022-08-19T17:38:35.721Z,26.02
2022-08-19T17:41:05.906Z,25.98
2022-08-19T17:43:41.266Z,26.11
2022-08-19T17:46:11.064Z,25.80
2022-08-19T17:48:38.850Z,26.12
2022-08-19T17:51:24.553Z,26.33
2022-08-19T17:53:52.985Z,26.37
2022-08-19T17:57:37.915Z,26.32
2022-08-19T18:00:08.896Z,26.18
2022-08-19T18:02:47.225Z,26.12
2022-08-19T18:05:14.687Z,25.63
2022-08-19T18:07:42.376Z,25.33
2022-08-19T18:10:12.190Z,25.22
2022-08-19T18:12:38.650Z,25.09
2022-08-19T18:15:08.062Z,25.12
2022-08-19T18:17:36.881Z,25.23
2022-08-19T18:20:12.147Z,25.10
2022-08-19T18:22:41.963Z,25.06
2022-08-19T18:25:24.274Z,25.08
2022-08-19T18:27:56.175Z,25.04
2022-08-19T18:30:24.619Z,24.99
2022-08-19T18:32:52.692Z,25.00
2022-08-19T18:35:29.504Z,24.89
2022-08-19T18:38:01.230Z,24.85
2022-08-19T18:40:47.873Z,24.79
2022-08-19T18:43:23.535Z,24.72
2022-08-19T18:46:09.784Z,24.64
2022-08-19T18:48:56.510Z,24.58
2022-08-19T18:51:28.149Z,24.60
2022-08-19T18:53:57.098Z,24.60
2022-08-19T18:56:31.595Z,24.58
2022-08-19T18:58:59.227Z,24.55
2022-08-19T19:01:38.408Z,24.47
2022-08-19T19:04:10.553Z,24.55
2022-08-19T19:06:40.425Z,24.47
2022-08-19T19:09:09.729Z,24.45
2022-08-19T19:11:39.315Z,24.32
2022-08-19T19:14:19.242Z,24.37
2022-08-19T19:17:04.205Z,24.31
2022-08-19T19:19:32.004Z,24.34
2022-08-19T19:21:59.081Z,24.24
2022-08-19T19:24:29.755Z,24.30
2022-08-19T19:26:59.557Z,24.32
2022-08-19T19:29:26.418Z,24.34
2022-08-19T19:31:56.005Z,24.51
2022-08-19T19:34:29.359Z,24.34
2022-08-19T19:36:56.753Z,24.24
2022-08-19T19:39:39.290Z,24.27
2022-08-19T19:42:20.054Z,24.11
2022-08-19T19:44:48.958Z,24.23
2022-08-19T19:47:17.414Z,24.04
2022-08-19T19:50:03.749Z,24.11
2022-08-19T19:52:31.390Z,23.86
2022-08-19T19:54:57.819Z,23.79
2022-08-19T19:57:26.477Z,23.56
2022-08-19T19:59:54.238Z,23.58
2022-08-19T20:02:21.844Z,23.42
2022-08-19T20:04:48.858Z,23.36
2022-08-19T20:07:15.418Z,23.43
2022-08-19T20:09:58.645Z,23.49
2022-08-19T20:12:26.044Z,23.61
2022-08-19T20:14:52.554Z,23.55
2022-08-19T20:17:20.371Z,23.53
2022-08-19T20:19:47.397Z,23.46
2022-08-19T20:22:13.971Z,23.41
2022-08-19T20:24:42.293Z,23.21
2022-08-19T20:27:09.106Z,23.08
2022-08-19T20:29:40.457Z,23.11
2022-08-19T20:32:09.379Z,23.04
2022-08-19T20:34:37.078Z,22.97
2022-08-19T20:37:03.528Z,22.76
2022-08-19T20:39:30.034Z,22.73
2022-08-19T20:41:56.953Z,22.80
2022-08-19T20:44:25.317Z,22.63
2022-08-19T20:46:54.675Z,22.50
2022-08-19T20:49:22.998Z,22.61
2022-08-19T20:51:54.429Z,22.66
2022-08-19T20:54:21.608Z,22.56
2022-08-19T20:56:48.131Z,22.43
2022-08-19T20:59:14.909Z,22.43
2022-08-19T21:01:41.300Z,22.48
2022-08-19T21:04:07.758Z,22.39
2022-08-19T21:06:34.278Z,22.47
2022-08-19T21:09:00.746Z,22.22
2022-08-19T21:11:27.184Z,22.29
2022-08-19T21:13:53.716Z,22.30
2022-08-19T21:16:20.340Z,22.18
2022-08-19T21:18:46.785Z,21.92
2022-08-19T21:21:13.236Z,21.83
2022-08-19T21:23:40.357Z,21.75
2022-08-19T21:26:08.337Z,21.60
2022-08-19T21:28:36.416Z,21.65
2022-08-19T21:31:05.501Z,21.65
2022-08-19T21:33:32.827Z,21.68
2022-08-19T21:36:00.107Z,21.77
2022-08-19T21:38:27.173Z,21.65
2022-08-19T21:40:54.078Z,21.72
2022-08-19T21:43:20.920Z,21.57
2022-08-19T21:45:48.024Z,21.60
2022-08-19T21:48:14.950Z,21.68
2022-08-19T21:50:42.916Z,21.62
2022-08-19T21:53:13.960Z,21.60
2022-08-19T21:55:45.667Z,21.58
2022-08-19T21:58:13.749Z,21.54
2022-08-19T22:00:40.466Z,21.55
2022-08-19T22:03:07.305Z,21.62
2022-08-19T22:05:34.200Z,21.92
2022-08-19T22:08:02.177Z,21.60
2022-08-19T22:10:32.131Z,21.51
2022-08-19T22:12:59.121Z,21.44
2022-08-19T22:15:29.099Z,21.54
2022-08-19T22:17:58.444Z,21.52
2022-08-19T22:20:28.061Z,21.47
2022-08-19T22:23:03.370Z,21.51
2022-08-19T22:25:42.956Z,21.51
2022-08-19T22:28:12.174Z,21.61
2022-08-19T22:30:41.587Z,21.47
2022-08-19T22:33:13.320Z,21.64
2022-08-19T22:35:41.546Z,21.72
2022-08-19T22:38:10.101Z,21.61
2022-08-19T22:40:42.113Z,21.57
2022-08-19T22:43:14.332Z,21.60
2022-08-19T22:45:41.706Z,21.51
2022-08-19T22:48:10.505Z,21.65
2022-08-19T22:50:38.890Z,21.57
2022-08-19T22:53:07.393Z,21.44
2022-08-19T22:55:36.010Z,21.52
2022-08-19T22:58:02.612Z,21.44
2022-08-19T23:00:29.373Z,21.45
2022-08-19T23:02:57.021Z,21.68
2022-08-19T23:05:26.842Z,21.92
2022-08-19T23:07:54.158Z,21.86
2022-08-19T23:10:27.614Z,21.45
2022-08-19T23:12:57.767Z,21.47
2022-08-19T23:15:29.718Z,21.62
2022-08-19T23:17:59.278Z,21.51
2022-08-19T23:20:29.880Z,21.42
2022-08-19T23:22:56.834Z,21.41
2022-08-19T23:25:27.169Z,21.28
2022-08-19T23:28:12.360Z,21.30
2022-08-19T23:30:44.410Z,21.28
2022-08-19T23:33:21.280Z,21.28
2022-08-19T23:35:48.374Z,21.27
2022-08-19T23:38:14.870Z,21.55
2022-08-19T23:40:41.363Z,21.37
2022-08-19T23:43:09.812Z,21.35
2022-08-19T23:45:40.272Z,21.27
2022-08-19T23:48:08.536Z,21.19
2022-08-19T23:50:35.122Z,21.34
2022-08-19T23:53:01.917Z,21.28
2022-08-19T23:55:32.548Z,21.24
